• Join FlightAware (Why Join?)
  • Login
  • US Flag 
12:56PM EST


 

Airport Tracker/Info


-or-


 

Live Flight TrackerFlight Track Log ✈ QXE2593 ✈ 02-Feb-2014 ✈ KPDX - KBOI

Flight Track Log - Related Links

Times and Time Zones

All times are in EST time to prevent confusion due to time zone crossing. See the QXE2593 flight status page for this flight to view local times or setup timezone preferences in your user account.

Time Position Orientation Groundspeed Altitude Reporting Facility
EST Latitude Longitude Course Direction KTS MPH feet Rate Location/Type
11:41PM 45.3975 -121.9222 130° Southeast  Level Estimated
11:42PM 45.3653 -121.8102 125° Southeast  Level Estimated
11:43PM 45.3329 -121.6983 130° Southeast  Level Estimated
11:44PM 45.3004 -121.5866 125° Southeast  Level Estimated
11:45PM 45.2679 -121.4749 109° East  Level Estimated
11:46PM 45.2352 -121.3634 108° East  Level Estimated
11:47PM 45.1531 -121.3318 165° South  Level FlightAware Approximate
11:48PM 45.0711 -121.3003 165° South  Level FlightAware Approximate
11:49PM 45.0406 -121.1867 107° East  Level Estimated
11:50PM 45.0104 -121.0731 111° Southeast  Level FlightAware Approximate
11:51PM 44.9800 -120.9596 111° Southeast  Level FlightAware Approximate
11:52PM 44.9496 -120.8462 111° Southeast  Level FlightAware Approximate
11:53PM 44.9190 -120.7329 111° Southeast  Level FlightAware Approximate
11:54PM 44.8883 -120.6198 111° Southeast  Level FlightAware Approximate
11:55PM 44.8575 -120.5068 111° Southeast  Level FlightAware Approximate
11:56PM 44.8265 -120.3939 111° Southeast  Level FlightAware Approximate
11:57PM 44.7925 -120.2700 111° Southeast  Level FlightAware Approximate
11:58PM 44.7582 -120.1463 111° Southeast  Level FlightAware Approximate
11:59PM 44.7294 -120.0426 111° Southeast  Level FlightAware Approximate
12:00AM 44.7005 -119.9391 111° Southeast  Level FlightAware Approximate
12:01AM 44.6715 -119.8356 111° Southeast  Level FlightAware Approximate
12:02AM 44.6424 -119.7323 112° Southeast  Level FlightAware Approximate
12:03AM 44.6130 -119.6276 112° Southeast  Level FlightAware Approximate
12:04AM 44.5839 -119.5243 112° Southeast  Level FlightAware Approximate
12:05AM 44.5547 -119.4212 112° Southeast  Level FlightAware Approximate
12:06AM 44.5254 -119.3181 112° Southeast  Level FlightAware Approximate
12:07AM 44.4961 -119.2152 112° Southeast  Level FlightAware Approximate
12:08AM 44.4666 -119.1123 112° Southeast  Level FlightAware Approximate
12:09AM 44.4370 -119.0096 112° Southeast  Level FlightAware Approximate
12:10AM 44.4074 -118.9070 112° Southeast  Level FlightAware Approximate
12:11AM 44.3777 -118.8045 112° Southeast  Level FlightAware Approximate
12:12AM 44.3474 -118.7023 113° Southeast  Level FlightAware Approximate
12:13AM 44.3169 -118.6003 113° Southeast  Level FlightAware Approximate
12:14AM 44.2830 -118.4880 113° Southeast  Level FlightAware Approximate
12:15AM 44.2491 -118.3757 113° Southeast  Level FlightAware Approximate
12:16AM 44.2150 -118.2636 113° Southeast  Level FlightAware Approximate
12:17AM 44.1809 -118.1516 113° Southeast  Level FlightAware Approximate
12:18AM 44.1447 -118.0342 113° Southeast  Level FlightAware Approximate
12:19AM 44.1077 -117.9127 113° Southeast  Level FlightAware Approximate
12:20AM 44.0705 -117.7914 113° Southeast  Level FlightAware Approximate
12:21AM 44.0332 -117.6702 113° Southeast  Level FlightAware Approximate
12:22AM 43.9953 -117.5495 114° Southeast  Level FlightAware Approximate
12:23AM 43.9569 -117.4292 114° Southeast  Level FlightAware Approximate
12:24AM 43.9184 -117.3090 114° Southeast  Level FlightAware Approximate
12:25AM 43.8797 -117.1890 115° Southeast  Level FlightAware Approximate
12:26AM 43.8373 -117.0715 117° Southeast  Level FlightAware Approximate
12:27AM 43.7957 -116.9536 115° Southeast  Level FlightAware Approximate
12:28AM 43.7583 -116.8332 109° East  Level FlightAware Approximate
12:29AM 43.7225 -116.7119 113° Southeast  Level FlightAware Approximate
12:30AM 43.6850 -116.5916 113° Southeast  Level FlightAware Approximate
12:31AM 43.6431 -116.4743 119° Southeast  Level FlightAware Approximate
12:32AM 43.5976 -116.3595 115° Southeast  Level FlightAware Approximate
12:33AM 43.5580 -116.2407 115° Southeast  Level FlightAware Approximate
12:34AM 43.5500 -116.2167 270° West  Level FlightAware Approximate
12:35AM 43.5644 -116.2229 270° West  Level Estimated
12:36AM 43.5644 -116.2229 270° West  Level Estimated
12:37AM 43.5644 -116.2229 270° West  Level Estimated
12:38AM 43.5644 -116.2229 270° West  Level Estimated
12:39AM 43.5644 -116.2229 270° West  Level Estimated
12:40AM 43.5644 -116.2229 270° West  Level Estimated
12:41AM 43.5644 -116.2229 270° West  Level Estimated
12:42AM 43.5644 -116.2229 270° West  Level Estimated
12:43AM 43.5644 -116.2229 270° West  Level Estimated
12:44AM 43.5644 -116.2229 270° West  Level Estimated